createdAt,value
2018-08-30T01:18:10.580Z,58.20
2018-08-30T01:20:12.646Z,60.53
2018-08-30T01:22:14.861Z,60.10
2018-08-30T01:24:16.949Z,62.10
2018-08-30T01:26:19.140Z,62.17
2018-08-30T01:28:21.242Z,58.47
2018-08-30T01:30:23.301Z,61.27
2018-08-30T01:32:25.358Z,63.90
2018-08-30T01:34:27.527Z,61.23
2018-08-30T01:36:29.643Z,59.70
2018-08-30T01:38:31.811Z,60.70
2018-08-30T01:40:33.937Z,61.03
2018-08-30T01:42:36.077Z,58.83
2018-08-30T01:44:38.217Z,62.27
2018-08-30T01:46:40.803Z,65.40
2018-08-30T01:48:42.992Z,58.30
2018-08-30T01:50:45.161Z,62.10
2018-08-30T01:52:47.313Z,60.30
2018-08-30T01:54:49.373Z,64.47
2018-08-30T01:56:51.538Z,61.07
2018-08-30T01:58:53.616Z,56.17
2018-08-30T02:00:55.792Z,61.83
2018-08-30T02:02:57.958Z,61.07
2018-08-30T02:05:00.034Z,59.73
2018-08-30T02:07:02.235Z,59.37
2018-08-30T02:09:05.042Z,58.57
2018-08-30T02:11:07.194Z,56.77
2018-08-30T02:13:09.518Z,58.23
2018-08-30T02:15:11.709Z,55.83
2018-08-30T02:17:14.058Z,58.47
2018-08-30T02:19:16.497Z,56.10
2018-08-30T02:21:19.033Z,54.60
2018-08-30T02:23:21.285Z,52.57
2018-08-30T02:25:23.433Z,52.10
2018-08-30T02:27:25.701Z,50.73
2018-08-30T02:29:28.029Z,52.10
2018-08-30T02:31:30.298Z,51.63
2018-08-30T02:33:32.930Z,51.40
2018-08-30T02:35:35.281Z,51.63
2018-08-30T02:37:37.704Z,55.80
2018-08-30T02:39:40.023Z,50.77
2018-08-30T02:41:42.737Z,49.70
2018-08-30T02:43:45.057Z,51.17
2018-08-30T02:45:47.381Z,52.57
2018-08-30T02:47:49.760Z,51.60
2018-08-30T02:49:52.370Z,51.77
2018-08-30T02:51:55.303Z,46.40
2018-08-30T02:53:58.399Z,48.67
2018-08-30T02:56:00.602Z,48.33
2018-08-30T02:58:02.894Z,46.77
2018-08-30T03:00:05.098Z,47.53
2018-08-30T03:02:07.812Z,44.57
2018-08-30T03:04:10.416Z,47.70
2018-08-30T03:06:13.094Z,43.20
2018-08-30T03:08:15.624Z,43.43
2018-08-30T03:10:17.863Z,41.70
2018-08-30T03:12:20.100Z,45.07
2018-08-30T03:14:22.172Z,45.83
2018-08-30T03:16:24.399Z,44.03
2018-08-30T03:18:26.533Z,47.00
2018-08-30T03:20:28.624Z,47.60
2018-08-30T03:22:30.744Z,47.30
2018-08-30T03:24:32.843Z,43.60
2018-08-30T03:26:34.934Z,48.90
2018-08-30T03:28:37.067Z,49.37
2018-08-30T03:30:39.372Z,49.20
2018-08-30T03:32:41.393Z,46.47
2018-08-30T03:34:43.527Z,47.77
2018-08-30T03:36:45.661Z,48.07
2018-08-30T03:38:47.851Z,45.77
2018-08-30T03:40:50.079Z,46.50
2018-08-30T03:42:52.203Z,46.63
2018-08-30T03:44:54.315Z,44.87
2018-08-30T03:46:56.433Z,43.73
2018-08-30T03:48:58.583Z,47.10
2018-08-30T03:51:00.661Z,41.90
2018-08-30T03:53:02.884Z,45.43
2018-08-30T03:55:05.040Z,43.80
2018-08-30T03:57:07.317Z,42.73
2018-08-30T03:59:09.520Z,44.47
2018-08-30T04:01:12.519Z,42.37
2018-08-30T04:03:14.835Z,44.63
2018-08-30T04:05:16.946Z,43.47
2018-08-30T04:07:19.030Z,42.47
2018-08-30T04:09:21.099Z,43.70
2018-08-30T04:11:23.206Z,44.17
2018-08-30T04:13:25.269Z,43.37
2018-08-30T04:15:27.373Z,43.83
2018-08-30T04:17:29.462Z,42.10
2018-08-30T04:19:31.538Z,42.73
2018-08-30T04:21:34.341Z,41.50
2018-08-30T04:23:36.426Z,42.40
2018-08-30T04:25:38.537Z,42.93
2018-08-30T04:27:40.617Z,41.67
2018-08-30T04:29:42.906Z,43.47
2018-08-30T04:31:45.167Z,43.37
2018-08-30T04:33:47.249Z,39.30
2018-08-30T04:35:49.393Z,42.27
2018-08-30T04:37:51.695Z,40.67
2018-08-30T04:39:53.834Z,38.33
2018-08-30T04:41:55.976Z,39.23
2018-08-30T04:43:58.073Z,39.80
2018-08-30T04:46:00.163Z,40.10
2018-08-30T04:48:02.549Z,38.37
2018-08-30T04:50:04.609Z,36.57
2018-08-30T04:52:06.630Z,36.57
2018-08-30T04:54:08.755Z,39.23
2018-08-30T04:56:10.846Z,37.77
2018-08-30T04:58:12.897Z,35.00
2018-08-30T05:00:14.988Z,35.27
2018-08-30T05:02:17.065Z,33.90
2018-08-30T05:04:19.198Z,34.40
2018-08-30T05:06:21.287Z,35.90
2018-08-30T05:08:24.208Z,34.30
2018-08-30T05:10:26.285Z,32.07
2018-08-30T05:12:28.417Z,34.30
2018-08-30T05:14:30.562Z,32.33
2018-08-30T05:16:32.679Z,32.33
2018-08-30T05:18:34.676Z,31.30
2018-08-30T05:20:36.868Z,32.17
2018-08-30T05:22:38.925Z,31.97
2018-08-30T05:24:41.027Z,30.40
2018-08-30T05:26:43.106Z,31.07
2018-08-30T05:28:45.181Z,28.40
2018-08-30T05:30:47.291Z,29.17
2018-08-30T05:32:49.378Z,30.47
2018-08-30T05:34:51.445Z,31.40
2018-08-30T05:36:53.521Z,31.90
2018-08-30T05:38:55.657Z,29.37
2018-08-30T05:40:57.738Z,30.23
2018-08-30T05:42:59.823Z,32.10
2018-08-30T05:45:01.945Z,33.20
2018-08-30T05:47:04.022Z,33.40
2018-08-30T05:49:06.153Z,32.50
2018-08-30T05:51:08.265Z,32.23
2018-08-30T05:53:10.349Z,32.27
2018-08-30T05:55:12.477Z,32.97
2018-08-30T05:57:14.562Z,32.23
2018-08-30T05:59:16.626Z,31.33
2018-08-30T06:01:18.713Z,32.80
2018-08-30T06:03:20.766Z,33.40
2018-08-30T06:05:22.825Z,30.50
2018-08-30T06:07:24.975Z,32.83
2018-08-30T06:09:27.105Z,34.30
2018-08-30T06:11:29.170Z,31.70
2018-08-30T06:13:31.241Z,31.57
2018-08-30T06:15:33.351Z,31.47
2018-08-30T06:17:35.453Z,32.17
2018-08-30T06:19:37.561Z,31.30
2018-08-30T06:21:39.647Z,28.97
2018-08-30T06:23:41.858Z,29.43
2018-08-30T06:25:43.945Z,31.93
2018-08-30T06:27:46.101Z,30.27
2018-08-30T06:29:48.202Z,28.37
2018-08-30T06:31:50.303Z,29.77
2018-08-30T06:33:52.341Z,30.10
2018-08-30T06:35:54.451Z,27.10
2018-08-30T06:37:56.538Z,25.90
2018-08-30T06:39:58.662Z,26.50
2018-08-30T06:42:00.717Z,27.30
2018-08-30T06:44:02.854Z,26.30
2018-08-30T06:46:05.005Z,26.67
2018-08-30T06:48:07.174Z,27.00
2018-08-30T06:50:09.243Z,28.33
2018-08-30T06:52:11.301Z,28.03
2018-08-30T06:54:13.441Z,28.20
2018-08-30T06:56:15.588Z,28.20
2018-08-30T06:58:17.659Z,29.13
2018-08-30T07:00:19.748Z,28.67
2018-08-30T07:02:21.841Z,29.30
2018-08-30T07:04:23.857Z,30.33
2018-08-30T07:06:25.930Z,30.43
2018-08-30T07:08:27.973Z,31.23
2018-08-30T07:10:30.023Z,31.80
2018-08-30T07:12:32.084Z,30.17
2018-08-30T07:14:34.155Z,30.40
2018-08-30T07:16:36.232Z,31.60
2018-08-30T07:18:38.280Z,32.20
2018-08-30T07:20:40.330Z,30.13
2018-08-30T07:22:42.466Z,30.33
2018-08-30T07:24:44.565Z,32.83
2018-08-30T07:26:46.626Z,32.67
2018-08-30T07:28:48.689Z,30.70
2018-08-30T07:30:50.765Z,30.87
2018-08-30T07:32:52.851Z,31.67
2018-08-30T07:34:55.017Z,29.40
2018-08-30T07:36:56.997Z,34.55
2018-08-30T07:38:59.100Z,34.93
2018-08-30T07:41:01.157Z,35.53
2018-08-30T07:43:03.237Z,33.67
2018-08-30T07:45:05.325Z,33.50
2018-08-30T07:47:07.429Z,32.70
2018-08-30T07:49:09.977Z,33.57
2018-08-30T07:51:14.085Z,34.40
2018-08-30T07:53:16.148Z,31.77
2018-08-30T07:55:18.201Z,35.10
2018-08-30T07:57:20.336Z,32.83
2018-08-30T07:59:22.355Z,31.87
2018-08-30T08:01:24.399Z,31.83
2018-08-30T08:03:26.492Z,31.97
2018-08-30T08:05:28.560Z,32.23
2018-08-30T08:07:30.665Z,31.40
2018-08-30T08:09:32.745Z,30.93
2018-08-30T08:11:34.832Z,32.53
2018-08-30T08:13:36.898Z,30.80
2018-08-30T08:15:38.960Z,28.60
2018-08-30T08:17:41.394Z,30.10
2018-08-30T08:19:43.465Z,30.63
2018-08-30T08:21:45.558Z,31.60
2018-08-30T08:23:47.669Z,28.17
2018-08-30T08:25:49.770Z,30.73
2018-08-30T08:27:51.809Z,28.70
2018-08-30T08:29:54.008Z,28.77
2018-08-30T08:31:56.310Z,29.50
2018-08-30T08:33:58.447Z,26.67
2018-08-30T08:36:00.529Z,27.50
2018-08-30T08:38:02.636Z,26.43
2018-08-30T08:40:05.137Z,26.50
2018-08-30T08:42:07.214Z,26.80
2018-08-30T08:44:09.536Z,25.07
2018-08-30T08:46:11.657Z,27.27
2018-08-30T08:48:13.764Z,22.47
2018-08-30T08:50:15.842Z,26.27
2018-08-30T08:52:17.898Z,24.57
2018-08-30T08:54:20.018Z,23.90
2018-08-30T08:56:22.107Z,24.13
2018-08-30T08:58:24.195Z,23.90
2018-08-30T09:00:26.317Z,22.73
2018-08-30T09:02:28.402Z,23.50
2018-08-30T09:04:30.466Z,21.63
2018-08-30T09:06:32.648Z,24.70
2018-08-30T09:08:34.690Z,23.53
2018-08-30T09:10:36.761Z,25.10
2018-08-30T09:12:38.885Z,24.13
2018-08-30T09:14:40.964Z,24.53
2018-08-30T09:16:43.030Z,22.90
2018-08-30T09:18:45.085Z,24.40
2018-08-30T09:20:47.165Z,22.00
2018-08-30T09:22:49.262Z,22.00
2018-08-30T09:24:51.366Z,22.57
2018-08-30T09:26:53.516Z,23.90
2018-08-30T09:28:55.640Z,21.40
2018-08-30T09:30:57.764Z,23.17
2018-08-30T09:32:59.845Z,22.30
2018-08-30T09:35:01.940Z,21.90
2018-08-30T09:37:04.037Z,22.60
2018-08-30T09:39:06.478Z,21.97
2018-08-30T09:41:08.626Z,22.00
2018-08-30T09:43:10.701Z,20.93
2018-08-30T09:45:12.801Z,20.60
2018-08-30T09:47:14.923Z,20.87
2018-08-30T09:49:17.008Z,22.13
2018-08-30T09:51:19.405Z,21.87
2018-08-30T09:53:21.457Z,21.67
2018-08-30T09:55:23.541Z,22.63
2018-08-30T09:57:25.655Z,20.87
2018-08-30T09:59:27.668Z,21.10
2018-08-30T10:01:35.586Z,20.13
2018-08-30T10:03:37.688Z,22.10
2018-08-30T10:05:39.723Z,21.43
2018-08-30T10:07:41.789Z,20.20
2018-08-30T10:09:43.869Z,20.93
2018-08-30T10:11:45.985Z,22.00
2018-08-30T10:13:48.045Z,20.97
2018-08-30T10:15:50.150Z,20.23
2018-08-30T10:17:52.292Z,19.00
2018-08-30T10:22:27.305Z,18.33
2018-08-30T10:24:29.407Z,18.93
2018-08-30T10:26:31.493Z,17.40
2018-08-30T10:28:33.553Z,17.73
2018-08-30T10:30:35.658Z,17.07
2018-08-30T10:32:37.775Z,17.17
2018-08-30T10:34:39.939Z,17.53
2018-08-30T10:36:42.069Z,18.50
2018-08-30T10:38:44.294Z,18.07
2018-08-30T10:40:46.462Z,17.07
2018-08-30T10:42:48.648Z,17.70
2018-08-30T10:44:50.776Z,18.63
2018-08-30T10:46:52.835Z,17.67
2018-08-30T10:48:54.936Z,17.87
2018-08-30T10:50:57.024Z,16.13
2018-08-30T10:52:59.069Z,16.00
2018-08-30T10:55:01.153Z,16.90
2018-08-30T10:57:03.225Z,17.83
2018-08-30T10:59:05.284Z,16.53
2018-08-30T11:01:07.440Z,18.03
2018-08-30T11:03:09.567Z,15.90
2018-08-30T11:05:11.660Z,18.17
2018-08-30T11:07:13.721Z,16.57
2018-08-30T11:09:15.807Z,17.00
2018-08-30T11:11:17.866Z,17.03
2018-08-30T11:13:20.008Z,19.17
2018-08-30T11:15:22.456Z,16.70
2018-08-30T11:17:25.093Z,17.50
2018-08-30T11:19:27.258Z,15.80
2018-08-30T11:21:29.314Z,18.40
2018-08-30T11:23:31.392Z,17.57
2018-08-30T11:25:33.893Z,17.80
2018-08-30T11:27:36.149Z,17.60
2018-08-30T11:29:38.265Z,19.40
2018-08-30T11:31:40.322Z,17.30
2018-08-30T11:33:42.393Z,18.63
2018-08-30T11:35:44.469Z,16.60
2018-08-30T11:37:46.658Z,17.27
2018-08-30T11:39:48.617Z,18.00
2018-08-30T11:41:50.800Z,17.60
2018-08-30T11:43:52.829Z,17.37
2018-08-30T11:45:54.995Z,17.37
2018-08-30T11:47:57.062Z,18.00
2018-08-30T11:49:59.149Z,17.07
2018-08-30T11:52:01.229Z,15.27
2018-08-30T11:54:03.343Z,16.97
2018-08-30T11:56:05.385Z,16.23
2018-08-30T11:58:07.473Z,15.47
2018-08-30T12:00:09.521Z,15.40
2018-08-30T12:02:11.598Z,13.90
2018-08-30T12:04:13.697Z,14.17
2018-08-30T12:06:15.782Z,15.67
2018-08-30T12:08:17.885Z,15.00
2018-08-30T12:10:20.067Z,14.20
2018-08-30T12:12:21.960Z,14.23
2018-08-30T12:14:30.118Z,13.53
2018-08-30T12:16:36.787Z,12.47
2018-08-30T12:18:48.398Z,11.60
2018-08-30T12:20:56.742Z,11.60
2018-08-30T12:23:03.208Z,13.50
2018-08-30T12:25:08.468Z,13.73
2018-08-30T12:27:18.081Z,12.90
2018-08-30T12:29:24.079Z,13.13
2018-08-30T12:31:34.379Z,15.10
2018-08-30T12:33:40.557Z,15.20
2018-08-30T12:35:49.420Z,11.70
2018-08-30T12:37:54.895Z,14.03
2018-08-30T12:39:59.137Z,15.57
2018-08-30T12:42:05.367Z,14.10
2018-08-30T12:44:09.279Z,14.37
2018-08-30T12:46:17.383Z,14.13
2018-08-30T12:48:24.174Z,13.87
2018-08-30T12:50:30.619Z,15.67
2018-08-30T12:52:40.545Z,13.00
2018-08-30T12:54:55.969Z,13.93
2018-08-30T12:59:22.599Z,14.97
2018-08-30T13:01:29.268Z,14.87
2018-08-30T13:03:44.524Z,14.37
2018-08-30T13:05:51.725Z,13.30
2018-08-30T13:07:56.460Z,12.57
2018-08-30T13:10:07.930Z,12.50
2018-08-30T13:12:16.514Z,12.43
2018-08-30T13:14:24.089Z,11.47
2018-08-30T13:16:29.064Z,11.00
2018-08-30T13:18:34.165Z,10.60
2018-08-30T13:20:43.323Z,11.10
2018-08-30T13:22:52.776Z,13.80
2018-08-30T13:25:11.511Z,14.53
2018-08-30T13:27:15.849Z,13.07
2018-08-30T13:29:34.935Z,14.47
2018-08-30T13:33:56.767Z,12.80
2018-08-30T13:36:03.308Z,13.53
2018-08-30T13:38:15.487Z,12.20
2018-08-30T13:40:20.736Z,13.40
2018-08-30T13:42:26.642Z,12.50
2018-08-30T13:44:32.743Z,11.90
2018-08-30T13:46:40.368Z,13.37
2018-08-30T13:48:43.507Z,12.80
2018-08-30T13:50:46.106Z,12.07
2018-08-30T13:52:48.751Z,11.50
2018-08-30T13:54:50.909Z,9.10
2018-08-30T13:56:53.083Z,8.90
2018-08-30T13:58:55.151Z,9.10
2018-08-30T14:00:57.303Z,8.87
2018-08-30T14:02:59.074Z,9.77
2018-08-30T14:05:01.179Z,9.20
2018-08-30T14:07:03.318Z,10.77
2018-08-30T14:09:05.413Z,10.20
2018-08-30T14:11:07.602Z,10.23
2018-08-30T14:13:09.586Z,10.77
2018-08-30T14:15:11.820Z,9.50
2018-08-30T14:17:13.509Z,10.13
2018-08-30T14:19:15.756Z,10.20
2018-08-30T14:21:17.777Z,10.40
2018-08-30T14:23:19.863Z,9.30
2018-08-30T14:25:21.957Z,8.53
2018-08-30T14:27:24.229Z,9.23
2018-08-30T14:29:26.297Z,9.50
2018-08-30T14:31:28.405Z,9.07
2018-08-30T14:33:30.470Z,9.00
2018-08-30T14:35:32.561Z,10.00
2018-08-30T14:37:34.757Z,8.30
2018-08-30T14:39:36.788Z,8.00
2018-08-30T14:41:39.321Z,7.83
2018-08-30T14:43:41.337Z,8.67
2018-08-30T14:45:43.558Z,7.60
2018-08-30T14:47:45.607Z,8.03
2018-08-30T14:49:47.633Z,8.27
2018-08-30T14:51:49.871Z,9.00
2018-08-30T14:53:52.356Z,8.57
2018-08-30T14:55:54.149Z,9.83
2018-08-30T14:57:56.120Z,8.13
2018-08-30T14:59:58.228Z,8.40
2018-08-30T15:02:00.388Z,9.03
2018-08-30T15:04:02.507Z,8.50
2018-08-30T15:06:04.774Z,7.93
2018-08-30T15:08:06.701Z,7.70
2018-08-30T15:10:08.769Z,7.77
2018-08-30T15:12:10.899Z,6.60
2018-08-30T15:14:12.930Z,6.10
2018-08-30T15:16:15.604Z,5.57
2018-08-30T15:18:17.685Z,6.07
2018-08-30T15:20:19.749Z,5.77
2018-08-30T15:22:21.816Z,6.60
2018-08-30T15:24:23.973Z,6.97
2018-08-30T15:26:26.037Z,5.87
2018-08-30T15:28:28.140Z,8.03
2018-08-30T15:30:30.214Z,7.03
2018-08-30T15:32:32.336Z,7.00
2018-08-30T15:34:34.421Z,6.33
2018-08-30T15:36:36.492Z,6.23
2018-08-30T15:38:38.567Z,7.07
2018-08-30T15:40:41.626Z,6.90
2018-08-30T15:42:43.896Z,6.20
2018-08-30T15:44:45.794Z,6.23
2018-08-30T15:46:47.906Z,7.00
2018-08-30T15:48:50.419Z,6.43
2018-08-30T15:50:52.467Z,6.90
2018-08-30T15:52:54.539Z,7.37
2018-08-30T15:54:56.600Z,6.50
2018-08-30T15:56:58.725Z,6.67
2018-08-30T15:59:00.741Z,6.60
2018-08-30T16:01:02.789Z,6.33
2018-08-30T16:03:05.017Z,7.00
2018-08-30T16:05:07.109Z,5.83
2018-08-30T16:07:09.137Z,6.70
2018-08-30T16:09:12.235Z,7.10
2018-08-30T16:11:14.402Z,5.67
2018-08-30T16:13:16.407Z,6.70
2018-08-30T16:15:18.494Z,5.60
2018-08-30T16:17:20.702Z,6.20
2018-08-30T16:19:22.677Z,6.17
2018-08-30T16:21:24.769Z,6.10
2018-08-30T16:23:29.165Z,5.80
2018-08-30T16:25:33.350Z,5.53
2018-08-30T16:27:35.550Z,6.00
2018-08-30T16:29:37.642Z,6.00
2018-08-30T16:31:39.794Z,5.90
2018-08-30T16:33:41.880Z,6.77
2018-08-30T16:35:43.977Z,5.97
2018-08-30T16:37:46.158Z,5.30
2018-08-30T16:39:48.294Z,5.77
2018-08-30T16:41:50.338Z,5.00
2018-08-30T16:43:52.441Z,5.53
2018-08-30T16:45:54.520Z,5.13
2018-08-30T16:47:56.621Z,5.50
2018-08-30T16:49:59.166Z,5.20
2018-08-30T16:52:01.237Z,5.43
2018-08-30T16:54:03.365Z,5.27
2018-08-30T16:56:05.465Z,5.67
2018-08-30T16:58:07.519Z,4.97
2018-08-30T17:00:09.592Z,6.43
2018-08-30T17:02:11.707Z,5.80
2018-08-30T17:04:13.749Z,5.33
2018-08-30T17:06:15.840Z,5.90
2018-08-30T17:08:17.932Z,5.47
2018-08-30T17:10:20.052Z,4.37
2018-08-30T17:12:22.266Z,3.93
2018-08-30T17:14:24.307Z,4.57
2018-08-30T17:16:26.445Z,4.10
2018-08-30T17:18:28.477Z,4.63
2018-08-30T17:20:35.916Z,4.27
2018-08-30T17:22:38.277Z,4.90
2018-08-30T17:24:40.369Z,5.23
2018-08-30T17:26:42.772Z,4.37
2018-08-30T17:28:44.844Z,3.97
2018-08-30T17:30:46.933Z,4.40
2018-08-30T17:32:49.045Z,4.23
2018-08-30T17:34:51.155Z,4.50
2018-08-30T17:36:53.227Z,4.90
2018-08-30T17:38:55.318Z,4.10
2018-08-30T17:40:57.468Z,4.13
2018-08-30T17:42:59.652Z,3.90
2018-08-30T17:45:01.830Z,4.93
2018-08-30T17:47:03.977Z,4.73
2018-08-30T17:49:06.057Z,4.00
2018-08-30T17:51:08.279Z,3.70
2018-08-30T17:53:10.372Z,4.57
2018-08-30T17:55:12.590Z,4.10
2018-08-30T17:57:14.685Z,4.10
2018-08-30T17:59:16.766Z,4.20
2018-08-30T18:01:18.889Z,4.47
2018-08-30T18:03:21.002Z,3.87
2018-08-30T18:05:23.257Z,4.00
2018-08-30T18:07:25.418Z,3.93
2018-08-30T18:09:27.505Z,3.70
2018-08-30T18:11:29.577Z,3.73
2018-08-30T18:13:31.659Z,3.50
2018-08-30T18:15:33.778Z,4.13
2018-08-30T18:17:36.093Z,4.23
2018-08-30T18:24:55.404Z,3.60
2018-08-30T18:26:59.247Z,3.70
2018-08-30T18:29:03.395Z,3.33
2018-08-30T18:31:07.231Z,2.90
2018-08-30T18:33:11.780Z,4.17
2018-08-30T18:35:16.652Z,4.20
2018-08-30T18:37:23.989Z,3.20
2018-08-30T18:39:28.519Z,3.70
2018-08-30T18:41:35.870Z,3.40
2018-08-30T18:43:38.290Z,3.40
2018-08-30T18:45:40.371Z,3.97
2018-08-30T18:47:42.435Z,3.47
2018-08-30T18:49:44.512Z,3.60
2018-08-30T18:51:46.601Z,4.10
2018-08-30T18:53:48.678Z,3.67
2018-08-30T18:55:50.761Z,3.40
2018-08-30T18:57:52.829Z,3.00
2018-08-30T18:59:54.909Z,3.50
2018-08-30T19:01:57.030Z,3.60
2018-08-30T19:03:59.190Z,2.93
2018-08-30T19:06:01.489Z,3.97
2018-08-30T19:08:03.584Z,3.20
2018-08-30T19:10:05.965Z,3.50
2018-08-30T19:12:08.066Z,3.03
2018-08-30T19:14:10.438Z,3.70
2018-08-30T19:16:18.246Z,3.50
2018-08-30T19:18:26.125Z,3.47
2018-08-30T19:20:28.224Z,4.30
2018-08-30T19:22:30.228Z,3.13
2018-08-30T19:24:38.114Z,3.53
2018-08-30T19:26:40.190Z,3.40
2018-08-30T19:28:42.277Z,3.80
2018-08-30T19:30:44.451Z,3.57
2018-08-30T19:32:46.585Z,3.27
2018-08-30T19:34:48.893Z,3.33
2018-08-30T19:36:50.964Z,3.70
2018-08-30T19:38:53.053Z,3.23
2018-08-30T19:41:00.897Z,2.80
2018-08-30T19:43:02.953Z,3.60
2018-08-30T19:45:05.092Z,3.40
2018-08-30T19:47:07.257Z,3.60
2018-08-30T19:49:09.322Z,3.30
2018-08-30T19:51:11.502Z,2.87
2018-08-30T19:53:13.726Z,3.30
2018-08-30T19:55:15.843Z,3.07
2018-08-30T19:57:17.966Z,3.30
2018-08-30T19:59:20.272Z,2.60
2018-08-30T20:01:22.361Z,3.20
2018-08-30T20:03:24.602Z,3.80
2018-08-30T20:05:26.730Z,3.50
2018-08-30T20:07:28.882Z,2.77
2018-08-30T20:09:30.909Z,3.33
2018-08-30T20:11:32.949Z,3.13
2018-08-30T20:13:35.030Z,3.03
2018-08-30T20:15:37.104Z,4.00
2018-08-30T20:17:39.172Z,3.70
2018-08-30T20:19:41.263Z,3.43
2018-08-30T20:21:43.321Z,3.80
2018-08-30T20:23:45.397Z,3.40
2018-08-30T20:25:47.437Z,3.50
2018-08-30T20:27:53.044Z,3.23
2018-08-30T20:29:55.719Z,3.43
2018-08-30T20:31:57.894Z,3.40
2018-08-30T20:34:00.017Z,3.20
2018-08-30T20:36:02.201Z,3.03
2018-08-30T20:38:04.309Z,3.40
2018-08-30T20:40:06.380Z,3.07
2018-08-30T20:42:08.477Z,3.50
2018-08-30T20:44:10.562Z,4.03
2018-08-30T20:46:12.647Z,3.83
2018-08-30T20:48:14.849Z,3.00
2018-08-30T20:50:16.925Z,3.83
2018-08-30T20:52:19.023Z,3.47
2018-08-30T20:54:21.176Z,2.90
2018-08-30T20:56:23.272Z,3.17
2018-08-30T20:58:25.333Z,3.50
2018-08-30T21:00:27.555Z,3.10
2018-08-30T21:02:29.429Z,3.30
2018-08-30T21:04:31.488Z,2.80
2018-08-30T21:06:33.581Z,4.00
2018-08-30T21:08:35.637Z,3.83
2018-08-30T21:10:37.700Z,3.10
2018-08-30T21:12:39.752Z,3.57
2018-08-30T21:14:41.786Z,3.27
2018-08-30T21:16:43.812Z,3.50
2018-08-30T21:18:45.867Z,2.70
2018-08-30T21:20:47.961Z,3.30
2018-08-30T21:22:49.993Z,2.80
2018-08-30T21:24:52.054Z,3.70
2018-08-30T21:26:54.128Z,3.70
2018-08-30T21:28:56.232Z,2.70
2018-08-30T21:30:58.261Z,3.43
2018-08-30T21:33:00.320Z,3.03
2018-08-30T21:35:02.352Z,3.77
2018-08-30T21:37:04.392Z,2.67
2018-08-30T21:39:07.519Z,2.87
2018-08-30T21:41:09.555Z,3.53
2018-08-30T21:43:11.621Z,3.63
2018-08-30T21:45:15.729Z,3.23
2018-08-30T21:47:17.789Z,3.10
2018-08-30T21:49:19.886Z,2.63
2018-08-30T21:51:21.972Z,3.07
2018-08-30T21:53:24.021Z,2.90
2018-08-30T21:55:26.107Z,3.13
2018-08-30T21:57:28.181Z,3.60
2018-08-30T21:59:30.263Z,3.33
2018-08-30T22:01:32.325Z,3.10
2018-08-30T22:03:34.367Z,2.80
2018-08-30T22:05:36.517Z,3.77
2018-08-30T22:07:38.586Z,3.23
2018-08-30T22:09:40.633Z,3.60
2018-08-30T22:11:42.909Z,2.80
2018-08-30T22:13:44.970Z,3.00
2018-08-30T22:15:47.019Z,3.30
2018-08-30T22:17:49.091Z,3.17
2018-08-30T22:19:51.188Z,2.93
2018-08-30T22:21:53.229Z,3.80
2018-08-30T22:23:55.280Z,3.60
2018-08-30T22:25:57.383Z,2.40
2018-08-30T22:27:59.453Z,2.73
2018-08-30T22:30:01.550Z,2.90
2018-08-30T22:32:03.601Z,2.80
2018-08-30T22:34:05.705Z,2.83
2018-08-30T22:36:07.805Z,3.37
2018-08-30T22:38:09.877Z,2.47
2018-08-30T22:40:11.991Z,2.63
2018-08-30T22:42:14.045Z,2.93
2018-08-30T22:44:16.121Z,3.07
2018-08-30T22:46:18.181Z,2.63
2018-08-30T22:48:20.302Z,2.97
2018-08-30T22:50:22.346Z,3.00
2018-08-30T22:52:24.469Z,3.20
2018-08-30T22:54:26.532Z,2.60
2018-08-30T22:56:28.605Z,2.33
2018-08-30T22:58:30.781Z,2.60
2018-08-30T23:00:32.832Z,2.90
2018-08-30T23:02:34.892Z,3.37
2018-08-30T23:04:36.933Z,2.73
2018-08-30T23:06:38.992Z,3.13
2018-08-30T23:08:41.056Z,2.70
2018-08-30T23:10:43.121Z,2.33
2018-08-30T23:12:45.181Z,2.70
2018-08-30T23:14:47.246Z,3.27
2018-08-30T23:16:49.294Z,3.10
2018-08-30T23:18:51.374Z,3.07
2018-08-30T23:20:53.465Z,3.07
2018-08-30T23:22:55.561Z,2.77
2018-08-30T23:24:57.669Z,2.83
2018-08-30T23:26:59.738Z,2.80
2018-08-30T23:29:01.845Z,3.43
2018-08-30T23:31:04.293Z,3.50
2018-08-30T23:33:06.353Z,2.90
2018-08-30T23:35:08.434Z,3.13
2018-08-30T23:37:10.532Z,3.50
2018-08-30T23:39:12.581Z,2.60
2018-08-30T23:41:14.708Z,3.00
2018-08-30T23:43:16.766Z,3.20
2018-08-30T23:45:18.861Z,2.50
2018-08-30T23:47:21.165Z,2.80
2018-08-30T23:49:23.240Z,2.83
2018-08-30T23:51:25.344Z,3.43
2018-08-30T23:53:27.437Z,2.60
2018-08-30T23:55:29.505Z,2.43
2018-08-30T23:57:31.569Z,3.10
2018-08-30T23:59:45.328Z,3.23
